Saturday, May 26, 2018, 2:22 AM EDT
Back to Local

KBLM, Belmar-farmingdale

Location: Farmingdale, NJ, United States Lat: 40.183
Local Time: 2:22 AM EDT ( 6:22 GMT) Lon: -74.133
Time Zone: US/Eastern Elev: 157 ft

Show me the last for .
Show Decoded

2018-05-26 01:56 METAR KBLM 260556Z AUTO 22009KT 10SM CLR 22/17 A2988 RMK AO2 SLP119 T02220167
                 10272 20222 58005 =
2018-05-26 00:56 METAR KBLM 260456Z AUTO 22009KT 10SM CLR 22/16 A2989 RMK AO2 SLP123 T02220161
                 403060150 =
2018-05-25 23:56 METAR KBLM 260356Z AUTO 21008KT 10SM CLR 22/17 A2989 RMK AO2 SLP124 T02220167 =
2018-05-25 22:56 METAR KBLM 260256Z AUTO 20008KT 10SM CLR 23/17 A2989 RMK AO2 SLP125 T02280167
                 50004 =
2018-05-25 21:56 METAR KBLM 260156Z AUTO 20005KT 10SM CLR 24/16 A2989 RMK AO2 SLP125 T02390161 =
2018-05-25 20:56 METAR KBLM 260056Z AUTO 21006KT 10SM CLR 26/15 A2988 RMK AO2 SLP122 T02560150 =
2018-05-25 19:56 METAR KBLM 252356Z AUTO 22009KT 10SM CLR 27/15 A2988 RMK AO2 SLP121 6////
                 T02720150 10306 20272 55005 =
2018-05-25 18:56 METAR KBLM 252256Z AUTO 22008KT 10SM CLR 28/15 A2988 RMK AO2 SLP120 T02830150 =
2018-05-25 17:56 METAR KBLM 252156Z AUTO 23013G19KT 10SM CLR 29/15 A2988 RMK AO2 SLP122 T02940150
                 =
2018-05-25 16:56 METAR KBLM 252056Z AUTO 23012G18KT 10SM CLR 30/14 A2990 RMK AO2 SLP126 6////
                 T03000144 56021 =
2018-05-25 15:56 METAR KBLM 251956Z AUTO 27012G19KT 10SM CLR 30/14 A2991 RMK AO2 SLP132 T03000144
                 =
2018-05-25 14:56 METAR KBLM 251856Z AUTO 24014G18KT 10SM CLR 30/12 A2994 RMK AO2 SLP140 T03000122
                 =
2018-05-25 13:56 METAR KBLM 251756Z AUTO 22010G18KT 10SM CLR 29/12 A2996 RMK AO2 SLP147 6////
                 T02940122 10300 20200 56026 =
2018-05-25 12:56 METAR KBLM 251656Z AUTO 26012G18KT 10SM CLR 29/12 A2998 RMK AO2 SLP155 T02890117
                 =
2018-05-25 11:56 METAR KBLM 251556Z AUTO 23011KT 10SM CLR 28/13 A3001 RMK AO2 SLP165 T02780133 =
2018-05-25 10:56 METAR KBLM 251456Z AUTO 24012G16KT 10SM CLR 27/14 A3004 RMK AO2 SLP173 6////
                 T02670139 58017 =
2018-05-25 09:56 METAR KBLM 251356Z AUTO 24011KT 10SM CLR 25/14 A3006 RMK AO2 SLP183 T02500139 =
2018-05-25 08:56 METAR KBLM 251256Z AUTO 23006KT 10SM CLR 23/15 A3008 RMK AO2 SLP188 T02280150 =
2018-05-25 07:56 METAR KBLM 251156Z AUTO 23007KT 10SM CLR 20/15 A3009 RMK AO2 SLP191 T02000150
                 10200 20150 50002 =
2018-05-25 06:56 METAR KBLM 251056Z AUTO 22006KT 10SM CLR 17/14 A3009 RMK AO2 SLP194 T01670139 =
2018-05-25 05:56 METAR KBLM 250956Z AUTO 24006KT 10SM CLR 16/13 A3009 RMK AO2 SLP194 T01560133 =
2018-05-25 04:56 METAR KBLM 250856Z AUTO 22006KT 10SM CLR 16/12 A3008 RMK AO2 SLP189 T01560122
                 56011 =
2018-05-25 03:56 METAR KBLM 250756Z AUTO 23005KT 10SM CLR 15/12 A3009 RMK AO2 SLP191 T01500117 =
2018-05-25 02:56 METAR KBLM 250656Z AUTO 23006KT 10SM CLR 16/11 A3010 RMK AO2 SLP196 T01560106 =

Support USWX by starting your Amazon purchase here.